sensor_id;sensor_type;location;lat;lon;timestamp;pressure;altitude;pressure_sealevel;temperature;humidity
43125;BME280;49182;50.788;7.318;2023-03-15T00:01:34;100524.66;;;0.40;88.73
43125;BME280;49182;50.788;7.318;2023-03-15T00:04:01;100509.09;;;0.21;88.75
43125;BME280;49182;50.788;7.318;2023-03-15T00:06:27;100528.25;;;0.37;88.43
43125;BME280;49182;50.788;7.318;2023-03-15T00:08:54;100513.34;;;0.24;88.53
43125;BME280;49182;50.788;7.318;2023-03-15T00:11:21;100527.69;;;0.31;88.33
43125;BME280;49182;50.788;7.318;2023-03-15T00:13:49;100549.84;;;0.38;88.82
43125;BME280;49182;50.788;7.318;2023-03-15T00:16:15;100550.41;;;0.45;88.94
43125;BME280;49182;50.788;7.318;2023-03-15T00:18:42;100552.25;;;0.43;89.35
43125;BME280;49182;50.788;7.318;2023-03-15T00:21:09;100520.97;;;0.27;89.50
43125;BME280;49182;50.788;7.318;2023-03-15T00:23:36;100551.91;;;0.31;89.43
43125;BME280;49182;50.788;7.318;2023-03-15T00:26:03;100558.16;;;0.27;90.13
43125;BME280;49182;50.788;7.318;2023-03-15T00:28:29;100525.25;;;0.09;90.12
43125;BME280;49182;50.788;7.318;2023-03-15T00:31:08;100561.94;;;0.20;90.08
43125;BME280;49182;50.788;7.318;2023-03-15T00:33:38;100559.22;;;0.23;90.12
43125;BME280;49182;50.788;7.318;2023-03-15T00:36:06;100561.66;;;0.26;90.94
43125;BME280;49182;50.788;7.318;2023-03-15T00:38:35;100562.28;;;0.31;90.62
43125;BME280;49182;50.788;7.318;2023-03-15T00:41:05;100553.28;;;0.38;91.09
43125;BME280;49182;50.788;7.318;2023-03-15T00:43:32;100555.06;;;0.38;90.61
43125;BME280;49182;50.788;7.318;2023-03-15T00:45:59;100550.06;;;0.33;91.19
43125;BME280;49182;50.788;7.318;2023-03-15T00:48:28;100550.84;;;0.35;90.98
43125;BME280;49182;50.788;7.318;2023-03-15T00:51:05;100562.72;;;0.41;90.79
43125;BME280;49182;50.788;7.318;2023-03-15T00:53:33;100552.44;;;0.38;90.59
43125;BME280;49182;50.788;7.318;2023-03-15T00:56:03;100534.94;;;0.24;90.50
43125;BME280;49182;50.788;7.318;2023-03-15T00:58:30;100524.28;;;0.30;90.74
43125;BME280;49182;50.788;7.318;2023-03-15T01:00:57;100562.06;;;0.55;91.24
43125;BME280;49182;50.788;7.318;2023-03-15T01:03:23;100559.38;;;0.56;91.22
43125;BME280;49182;50.788;7.318;2023-03-15T01:05:51;100534.22;;;0.39;90.71
43125;BME280;49182;50.788;7.318;2023-03-15T01:08:18;100556.59;;;0.61;91.10
43125;BME280;49182;50.788;7.318;2023-03-15T01:10:45;100555.59;;;0.63;90.77
43125;BME280;49182;50.788;7.318;2023-03-15T01:13:11;100551.94;;;0.67;90.51
43125;BME280;49182;50.788;7.318;2023-03-15T01:15:38;100552.56;;;0.72;90.62
43125;BME280;49182;50.788;7.318;2023-03-15T01:18:05;100550.63;;;0.76;91.23
43125;BME280;49182;50.788;7.318;2023-03-15T01:20:31;100558.31;;;0.79;91.16
43125;BME280;49182;50.788;7.318;2023-03-15T01:22:59;100552.03;;;0.83;91.13
43125;BME280;49182;50.788;7.318;2023-03-15T01:25:26;100558.69;;;0.89;91.31
43125;BME280;49182;50.788;7.318;2023-03-15T01:27:53;100551.44;;;0.95;91.35
43125;BME280;49182;50.788;7.318;2023-03-15T01:30:19;100547.00;;;0.97;91.44
43125;BME280;49182;50.788;7.318;2023-03-15T01:32:47;100557.19;;;1.02;90.98
43125;BME280;49182;50.788;7.318;2023-03-15T01:35:13;100552.59;;;1.07;90.85
43125;BME280;49182;50.788;7.318;2023-03-15T01:37:40;100520.47;;;0.91;91.27
43125;BME280;49182;50.788;7.318;2023-03-15T01:40:12;100514.13;;;0.96;91.12
43125;BME280;49182;50.788;7.318;2023-03-15T01:42:50;100546.72;;;1.20;90.88
43125;BME280;49182;50.788;7.318;2023-03-15T01:48:25;100559.78;;;1.19;91.75
43125;BME280;49182;50.788;7.318;2023-03-15T01:50:54;100556.88;;;1.25;91.63
43125;BME280;49182;50.788;7.318;2023-03-15T01:53:23;100567.06;;;1.30;92.11
43125;BME280;49182;50.788;7.318;2023-03-15T01:55:52;100562.25;;;1.22;92.56
43125;BME280;49182;50.788;7.318;2023-03-15T01:58:26;100572.25;;;1.30;93.02
43125;BME280;49182;50.788;7.318;2023-03-15T02:00:55;100561.31;;;1.23;93.07
43125;BME280;49182;50.788;7.318;2023-03-15T02:03:25;100575.69;;;1.30;93.09
43125;BME280;49182;50.788;7.318;2023-03-15T02:05:56;100592.28;;;1.45;92.91
43125;BME280;49182;50.788;7.318;2023-03-15T02:08:38;100585.09;;;1.50;92.92
43125;BME280;49182;50.788;7.318;2023-03-15T02:11:09;100585.09;;;1.50;91.29
43125;BME280;49182;50.788;7.318;2023-03-15T02:13:37;100602.28;;;1.70;91.29
43125;BME280;49182;50.788;7.318;2023-03-15T02:16:07;100600.81;;;1.81;91.43
43125;BME280;49182;50.788;7.318;2023-03-15T02:18:43;100580.31;;;1.75;91.36
43125;BME280;49182;50.788;7.318;2023-03-15T02:21:22;100596.84;;;1.74;92.18
43125;BME280;49182;50.788;7.318;2023-03-15T02:23:58;100599.13;;;1.80;92.92
43125;BME280;49182;50.788;7.318;2023-03-15T02:26:33;100595.69;;;1.80;92.32
43125;BME280;49182;50.788;7.318;2023-03-15T02:29:05;100616.50;;;1.80;93.10
43125;BME280;49182;50.788;7.318;2023-03-15T02:31:32;100613.06;;;1.79;93.65
43125;BME280;49182;50.788;7.318;2023-03-15T02:34:00;100613.06;;;1.79;93.46
43125;BME280;49182;50.788;7.318;2023-03-15T02:36:28;100614.75;;;1.80;93.29
43125;BME280;49182;50.788;7.318;2023-03-15T02:38:55;100611.94;;;1.85;93.24
43125;BME280;49182;50.788;7.318;2023-03-15T02:41:27;100584.47;;;1.62;93.10
43125;BME280;49182;50.788;7.318;2023-03-15T02:43:58;100619.56;;;1.88;92.77
43125;BME280;49182;50.788;7.318;2023-03-15T02:46:28;100616.28;;;1.84;93.48
43125;BME280;49182;50.788;7.318;2023-03-15T02:48:55;100610.38;;;1.81;92.83
43125;BME280;49182;50.788;7.318;2023-03-15T02:51:25;100588.97;;;1.76;93.39
43125;BME280;49182;50.788;7.318;2023-03-15T02:53:52;100606.56;;;1.88;93.23
43125;BME280;49182;50.788;7.318;2023-03-15T02:56:19;100608.00;;;1.93;93.32
43125;BME280;49182;50.788;7.318;2023-03-15T02:58:46;100592.22;;;1.96;92.96
43125;BME280;49182;50.788;7.318;2023-03-15T03:01:15;100591.97;;;2.01;92.46
43125;BME280;49182;50.788;7.318;2023-03-15T03:03:45;100596.34;;;2.00;92.83
43125;BME280;49182;50.788;7.318;2023-03-15T03:06:16;100512.81;;;1.39;93.11
43125;BME280;49182;50.788;7.318;2023-03-15T03:08:44;100612.41;;;1.91;93.20
43125;BME280;49182;50.788;7.318;2023-03-15T03:11:11;100618.41;;;1.93;93.41
43125;BME280;49182;50.788;7.318;2023-03-15T03:13:38;100614.88;;;1.94;92.85
43125;BME280;49182;50.788;7.318;2023-03-15T03:16:05;100603.88;;;1.89;93.16
43125;BME280;49182;50.788;7.318;2023-03-15T03:18:32;100613.28;;;1.92;93.00
43125;BME280;49182;50.788;7.318;2023-03-15T03:21:02;100602.25;;;1.87;92.47
43125;BME280;49182;50.788;7.318;2023-03-15T03:23:30;100626.28;;;1.92;92.40
43125;BME280;49182;50.788;7.318;2023-03-15T03:25:57;100642.16;;;1.87;92.70
43125;BME280;49182;50.788;7.318;2023-03-15T03:28:27;100644.09;;;1.84;92.98
43125;BME280;49182;50.788;7.318;2023-03-15T03:30:54;100652.72;;;1.84;93.41
43125;BME280;49182;50.788;7.318;2023-03-15T03:33:22;100618.16;;;1.65;92.93
43125;BME280;49182;50.788;7.318;2023-03-15T03:35:49;100650.97;;;1.85;92.64
43125;BME280;49182;50.788;7.318;2023-03-15T03:38:18;100652.50;;;1.89;92.44
43125;BME280;49182;50.788;7.318;2023-03-15T03:40:50;100643.47;;;1.79;92.49
43125;BME280;49182;50.788;7.318;2023-03-15T03:43:17;100649.56;;;1.95;91.68
43125;BME280;49182;50.788;7.318;2023-03-15T03:45:44;100654.31;;;1.87;92.18
43125;BME280;49182;50.788;7.318;2023-03-15T03:48:12;100655.22;;;1.86;92.36
43125;BME280;49182;50.788;7.318;2023-03-15T03:50:38;100660.53;;;1.84;92.69
43125;BME280;49182;50.788;7.318;2023-03-15T03:53:05;100664.13;;;1.82;92.56
43125;BME280;49182;50.788;7.318;2023-03-15T03:55:36;100665.81;;;1.83;92.76
43125;BME280;49182;50.788;7.318;2023-03-15T03:58:03;100663.28;;;1.81;92.47
43125;BME280;49182;50.788;7.318;2023-03-15T04:00:37;100657.53;;;1.75;92.51
43125;BME280;49182;50.788;7.318;2023-03-15T04:03:06;100650.22;;;1.66;92.74
43125;BME280;49182;50.788;7.318;2023-03-15T04:05:37;100669.66;;;1.76;93.00
43125;BME280;49182;50.788;7.318;2023-03-15T04:08:05;100658.69;;;1.69;93.16
43125;BME280;49182;50.788;7.318;2023-03-15T04:10:38;100676.53;;;1.77;92.97
43125;BME280;49182;50.788;7.318;2023-03-15T04:13:05;100680.00;;;1.77;93.02
43125;BME280;49182;50.788;7.318;2023-03-15T04:15:31;100672.91;;;1.79;93.44
43125;BME280;49182;50.788;7.318;2023-03-15T04:17:58;100679.81;;;1.80;93.04
43125;BME280;49182;50.788;7.318;2023-03-15T04:20:31;100677.22;;;1.80;92.97
43125;BME280;49182;50.788;7.318;2023-03-15T04:22:58;100678.97;;;1.80;92.82
43125;BME280;49182;50.788;7.318;2023-03-15T04:25:32;100666.50;;;1.69;92.63
43125;BME280;49182;50.788;7.318;2023-03-15T04:28:29;100679.06;;;1.78;92.43
43125;BME280;49182;50.788;7.318;2023-03-15T04:31:09;100678.53;;;1.72;92.75
43125;BME280;49182;50.788;7.318;2023-03-15T04:33:57;100674.38;;;1.68;92.88
43125;BME280;49182;50.788;7.318;2023-03-15T04:36:49;100678.44;;;1.73;93.04
43125;BME280;49182;50.788;7.318;2023-03-15T04:39:31;100671.63;;;1.71;92.92
43125;BME280;49182;50.788;7.318;2023-03-15T04:42:16;100661.53;;;1.65;92.69
43125;BME280;49182;50.788;7.318;2023-03-15T04:45:09;100689.47;;;1.78;92.83
43125;BME280;49182;50.788;7.318;2023-03-15T04:47:54;100686.03;;;1.78;93.19
43125;BME280;49182;50.788;7.318;2023-03-15T04:50:37;100637.28;;;1.47;92.95
43125;BME280;49182;50.788;7.318;2023-03-15T04:53:30;100671.47;;;1.74;93.25
43125;BME280;49182;50.788;7.318;2023-03-15T04:56:07;100689.31;;;1.81;93.28
43125;BME280;49182;50.788;7.318;2023-03-15T04:58:43;100671.41;;;1.75;92.66
43125;BME280;49182;50.788;7.318;2023-03-15T05:01:30;100681.38;;;1.84;92.70
43125;BME280;49182;50.788;7.318;2023-03-15T05:04:18;100661.47;;;1.66;93.09
43125;BME280;49182;50.788;7.318;2023-03-15T05:07:11;100663.13;;;1.67;92.99
43125;BME280;49182;50.788;7.318;2023-03-15T05:10:23;100691.06;;;1.81;93.34
43125;BME280;49182;50.788;7.318;2023-03-15T05:13:08;100671.63;;;1.71;93.39
43125;BME280;49182;50.788;7.318;2023-03-15T05:15:58;100696.50;;;1.76;93.50
43125;BME280;49182;50.788;7.318;2023-03-15T05:18:37;100710.19;;;1.80;93.39
43125;BME280;49182;50.788;7.318;2023-03-15T05:21:33;100721.47;;;1.80;93.38
43125;BME280;49182;50.788;7.318;2023-03-15T05:24:30;100723.94;;;1.83;93.45
43125;BME280;49182;50.788;7.318;2023-03-15T05:27:17;100725.69;;;1.83;93.44
43125;BME280;49182;50.788;7.318;2023-03-15T05:30:07;100727.50;;;1.81;93.26
43125;BME280;49182;50.788;7.318;2023-03-15T05:32:56;100736.22;;;1.80;93.37
43125;BME280;49182;50.788;7.318;2023-03-15T05:36:01;100742.38;;;1.79;93.23
43125;BME280;49182;50.788;7.318;2023-03-15T05:38:36;100738.16;;;1.76;93.56
43125;BME280;49182;50.788;7.318;2023-03-15T05:41:25;100740.59;;;1.79;93.35
43125;BME280;49182;50.788;7.318;2023-03-15T05:44:12;100748.56;;;1.76;93.29
43125;BME280;49182;50.788;7.318;2023-03-15T05:47:14;100753.84;;;1.75;93.59
43125;BME280;49182;50.788;7.318;2023-03-15T05:49:59;100752.31;;;1.71;94.19
43125;BME280;49182;50.788;7.318;2023-03-15T05:52:40;100768.72;;;1.73;93.79
43125;BME280;49182;50.788;7.318;2023-03-15T05:55:32;100775.44;;;1.77;93.72
43125;BME280;49182;50.788;7.318;2023-03-15T05:58:18;100772.84;;;1.77;94.11
43125;BME280;49182;50.788;7.318;2023-03-15T06:01:04;100773.50;;;1.80;94.09
43125;BME280;49182;50.788;7.318;2023-03-15T06:04:06;100788.22;;;1.81;93.73
43125;BME280;49182;50.788;7.318;2023-03-15T06:06:34;100791.66;;;1.82;94.03
43125;BME280;49182;50.788;7.318;2023-03-15T06:09:04;100793.59;;;1.78;93.88
43125;BME280;49182;50.788;7.318;2023-03-15T06:11:31;100809.97;;;1.80;94.06
43125;BME280;49182;50.788;7.318;2023-03-15T06:13:58;100809.81;;;1.83;94.00
43125;BME280;49182;50.788;7.318;2023-03-15T06:16:36;100801.84;;;1.86;94.25
43125;BME280;49182;50.788;7.318;2023-03-15T06:19:03;100812.19;;;1.88;94.06
43125;BME280;49182;50.788;7.318;2023-03-15T06:21:30;100818.47;;;1.84;93.80
43125;BME280;49182;50.788;7.318;2023-03-15T06:23:58;100811.72;;;1.80;94.04
43125;BME280;49182;50.788;7.318;2023-03-15T06:26:24;100818.53;;;1.82;94.22
43125;BME280;49182;50.788;7.318;2023-03-15T06:28:56;100819.09;;;1.89;94.32
43125;BME280;49182;50.788;7.318;2023-03-15T06:31:23;100830.97;;;1.94;94.50
43125;BME280;49182;50.788;7.318;2023-03-15T06:34:00;100825.47;;;2.00;93.81
43125;BME280;49182;50.788;7.318;2023-03-15T06:36:27;100840.25;;;2.00;94.16
43125;BME280;49182;50.788;7.318;2023-03-15T06:38:54;100829.69;;;2.03;94.35
43125;BME280;49182;50.788;7.318;2023-03-15T06:41:21;100828.53;;;2.09;93.93
43125;BME280;49182;50.788;7.318;2023-03-15T06:43:52;100822.31;;;2.11;93.87
43125;BME280;49182;50.788;7.318;2023-03-15T06:46:19;100824.47;;;2.03;93.81
43125;BME280;49182;50.788;7.318;2023-03-15T06:48:46;100836.84;;;1.98;94.36
43125;BME280;49182;50.788;7.318;2023-03-15T06:51:15;100848.59;;;2.07;94.05
43125;BME280;49182;50.788;7.318;2023-03-15T06:53:42;100859.78;;;2.09;94.31
43125;BME280;49182;50.788;7.318;2023-03-15T06:56:09;100872.88;;;2.07;94.28
43125;BME280;49182;50.788;7.318;2023-03-15T06:58:36;100873.50;;;2.12;94.11
43125;BME280;49182;50.788;7.318;2023-03-15T07:01:03;100865.28;;;2.02;93.88
43125;BME280;49182;50.788;7.318;2023-03-15T07:03:30;100883.91;;;2.12;93.96
43125;BME280;49182;50.788;7.318;2023-03-15T07:05:57;100893.19;;;2.18;94.03
43125;BME280;49182;50.788;7.318;2023-03-15T07:08:25;100895.09;;;2.14;93.80
43125;BME280;49182;50.788;7.318;2023-03-15T07:10:51;100883.00;;;2.13;93.53
43125;BME280;49182;50.788;7.318;2023-03-15T07:13:18;100897.25;;;2.23;93.85
43125;BME280;49182;50.788;7.318;2023-03-15T07:15:45;100905.53;;;2.31;93.27
43125;BME280;49182;50.788;7.318;2023-03-15T07:18:16;100920.09;;;2.35;93.21
43125;BME280;49182;50.788;7.318;2023-03-15T07:20:42;100923.41;;;2.39;93.30
43125;BME280;49182;50.788;7.318;2023-03-15T07:23:09;100918.13;;;2.40;92.91
43125;BME280;49182;50.788;7.318;2023-03-15T07:25:37;100908.09;;;2.33;92.91
43125;BME280;49182;50.788;7.318;2023-03-15T07:28:20;100924.03;;;2.44;92.87
43125;BME280;49182;50.788;7.318;2023-03-15T07:30:57;100919.50;;;2.48;92.68
43125;BME280;49182;50.788;7.318;2023-03-15T07:33:26;100933.53;;;2.62;92.84
43125;BME280;49182;50.788;7.318;2023-03-15T07:35:53;100927.56;;;2.60;92.54
43125;BME280;49182;50.788;7.318;2023-03-15T07:38:21;100936.53;;;2.72;92.81
43125;BME280;49182;50.788;7.318;2023-03-15T07:40:49;100940.91;;;2.89;91.79
43125;BME280;49182;50.788;7.318;2023-03-15T07:43:16;100947.72;;;3.08;90.42
43125;BME280;49182;50.788;7.318;2023-03-15T07:45:47;100949.31;;;3.11;91.53
43125;BME280;49182;50.788;7.318;2023-03-15T07:48:13;100955.53;;;3.25;91.50
43125;BME280;49182;50.788;7.318;2023-03-15T07:50:40;100954.63;;;3.42;90.16
43125;BME280;49182;50.788;7.318;2023-03-15T07:53:07;100958.44;;;3.52;89.66
43125;BME280;49182;50.788;7.318;2023-03-15T07:55:34;100965.28;;;3.55;89.95
43125;BME280;49182;50.788;7.318;2023-03-15T07:58:02;100963.00;;;3.64;90.31
43125;BME280;49182;50.788;7.318;2023-03-15T08:00:29;100976.50;;;3.73;89.35
43125;BME280;49182;50.788;7.318;2023-03-15T08:02:56;100983.88;;;3.82;89.13
43125;BME280;49182;50.788;7.318;2023-03-15T08:05:22;100955.69;;;3.71;88.29
43125;BME280;49182;50.788;7.318;2023-03-15T08:07:49;101004.19;;;3.92;87.62
43125;BME280;49182;50.788;7.318;2023-03-15T08:10:17;100993.31;;;4.00;85.66
43125;BME280;49182;50.788;7.318;2023-03-15T08:12:44;100995.09;;;3.99;84.56
43125;BME280;49182;50.788;7.318;2023-03-15T08:15:12;101001.22;;;3.98;84.99
43125;BME280;49182;50.788;7.318;2023-03-15T08:17:40;101002.75;;;4.02;84.22
43125;BME280;49182;50.788;7.318;2023-03-15T08:20:09;101009.00;;;4.00;84.29
43125;BME280;49182;50.788;7.318;2023-03-15T08:22:37;101003.66;;;4.01;84.07
43125;BME280;49182;50.788;7.318;2023-03-15T08:25:05;100997.00;;;3.96;84.52
43125;BME280;49182;50.788;7.318;2023-03-15T08:27:32;101013.88;;;4.06;83.82
43125;BME280;49182;50.788;7.318;2023-03-15T08:29:58;101020.63;;;4.10;83.67
43125;BME280;49182;50.788;7.318;2023-03-15T08:32:26;101029.38;;;4.09;83.99
43125;BME280;49182;50.788;7.318;2023-03-15T08:34:53;101035.19;;;4.14;83.60
43125;BME280;49182;50.788;7.318;2023-03-15T08:37:19;101033.22;;;4.19;82.33
43125;BME280;49182;50.788;7.318;2023-03-15T08:39:46;101037.41;;;4.22;83.11
43125;BME280;49182;50.788;7.318;2023-03-15T08:42:13;101037.75;;;4.31;83.53
43125;BME280;49182;50.788;7.318;2023-03-15T08:44:39;101035.31;;;4.44;83.00
43125;BME280;49182;50.788;7.318;2023-03-15T08:47:06;101035.72;;;4.52;82.03
43125;BME280;49182;50.788;7.318;2023-03-15T08:49:34;101038.81;;;4.59;81.93
43125;BME280;49182;50.788;7.318;2023-03-15T08:52:01;101041.59;;;4.71;81.60
43125;BME280;49182;50.788;7.318;2023-03-15T08:54:27;101047.66;;;4.87;81.77
43125;BME280;49182;50.788;7.318;2023-03-15T08:56:54;101052.09;;;5.01;81.52
43125;BME280;49182;50.788;7.318;2023-03-15T08:59:20;101052.91;;;5.17;79.66
43125;BME280;49182;50.788;7.318;2023-03-15T09:01:58;101052.34;;;5.26;78.84
43125;BME280;49182;50.788;7.318;2023-03-15T09:04:25;101061.25;;;5.38;78.29
43125;BME280;49182;50.788;7.318;2023-03-15T09:06:53;101066.34;;;5.41;77.37
43125;BME280;49182;50.788;7.318;2023-03-15T09:09:20;101069.97;;;5.39;77.35
43125;BME280;49182;50.788;7.318;2023-03-15T09:11:46;101072.94;;;5.33;77.92
43125;BME280;49182;50.788;7.318;2023-03-15T09:14:13;101067.13;;;5.27;77.81
43125;BME280;49182;50.788;7.318;2023-03-15T09:16:40;101080.72;;;5.34;78.30
43125;BME280;49182;50.788;7.318;2023-03-15T09:19:06;101070.88;;;5.38;79.31
43125;BME280;49182;50.788;7.318;2023-03-15T09:21:33;101076.25;;;5.50;78.41
43125;BME280;49182;50.788;7.318;2023-03-15T09:24:01;101079.66;;;5.66;78.51
43125;BME280;49182;50.788;7.318;2023-03-15T09:26:28;101083.97;;;5.82;77.00
43125;BME280;49182;50.788;7.318;2023-03-15T09:28:54;101079.16;;;5.90;76.12
43125;BME280;49182;50.788;7.318;2023-03-15T09:31:21;101086.19;;;5.59;73.40
43125;BME280;49182;50.788;7.318;2023-03-15T09:33:48;101093.78;;;5.64;73.71
43125;BME280;49182;50.788;7.318;2023-03-15T09:36:14;101092.94;;;5.63;74.11
43125;BME280;49182;50.788;7.318;2023-03-15T09:38:41;101092.28;;;5.60;74.35
43125;BME280;49182;50.788;7.318;2023-03-15T09:41:17;101091.81;;;5.53;74.90
43125;BME280;49182;50.788;7.318;2023-03-15T09:43:57;101082.44;;;5.63;75.19
43125;BME280;49182;50.788;7.318;2023-03-15T09:46:29;101098.69;;;5.84;75.23
43125;BME280;49182;50.788;7.318;2023-03-15T09:49:01;101098.13;;;5.79;74.70
43125;BME280;49182;50.788;7.318;2023-03-15T09:51:35;101116.88;;;6.01;74.67
43125;BME280;49182;50.788;7.318;2023-03-15T09:54:08;101103.56;;;5.90;73.72
43125;BME280;49182;50.788;7.318;2023-03-15T09:56:40;101115.66;;;6.07;73.64
43125;BME280;49182;50.788;7.318;2023-03-15T09:59:08;101132.22;;;6.07;73.16
43125;BME280;49182;50.788;7.318;2023-03-15T10:01:37;101116.22;;;5.98;73.67
43125;BME280;49182;50.788;7.318;2023-03-15T10:04:10;101115.75;;;6.05;73.32
43125;BME280;49182;50.788;7.318;2023-03-15T10:06:42;101115.25;;;5.99;73.80
43125;BME280;49182;50.788;7.318;2023-03-15T10:09:13;101103.78;;;6.16;73.55
43125;BME280;49182;50.788;7.318;2023-03-15T10:11:46;101090.50;;;6.04;72.29
43125;BME280;49182;50.788;7.318;2023-03-15T10:14:26;101112.19;;;6.06;72.00
43125;BME280;49182;50.788;7.318;2023-03-15T10:16:56;101108.72;;;6.20;73.17
43125;BME280;49182;50.788;7.318;2023-03-15T10:19:30;101110.13;;;6.40;71.95
43125;BME280;49182;50.788;7.318;2023-03-15T10:22:06;101101.59;;;6.50;72.22
43125;BME280;49182;50.788;7.318;2023-03-15T10:24:41;101109.53;;;6.49;70.49
43125;BME280;49182;50.788;7.318;2023-03-15T10:27:19;101100.50;;;6.26;71.46
43125;BME280;49182;50.788;7.318;2023-03-15T10:29:48;101110.81;;;6.29;71.93
43125;BME280;49182;50.788;7.318;2023-03-15T10:32:16;101106.19;;;6.19;72.44
43125;BME280;49182;50.788;7.318;2023-03-15T10:34:47;101104.13;;;6.24;71.33
43125;BME280;49182;50.788;7.318;2023-03-15T10:37:14;101103.78;;;6.16;71.03
43125;BME280;49182;50.788;7.318;2023-03-15T10:39:40;101118.19;;;6.08;69.37
43125;BME280;49182;50.788;7.318;2023-03-15T10:42:26;101114.06;;;6.19;70.43
43125;BME280;49182;50.788;7.318;2023-03-15T10:44:54;101106.31;;;6.03;69.93
43125;BME280;49182;50.788;7.318;2023-03-15T10:47:21;101102.84;;;6.17;69.09
43125;BME280;49182;50.788;7.318;2023-03-15T10:49:55;101120.03;;;6.49;69.54
43125;BME280;49182;50.788;7.318;2023-03-15T10:52:33;101103.88;;;6.69;68.33
43125;BME280;49182;50.788;7.318;2023-03-15T10:55:03;101114.72;;;7.04;64.40
43125;BME280;49182;50.788;7.318;2023-03-15T10:57:36;101113.94;;;7.16;64.71
43125;BME280;49182;50.788;7.318;2023-03-15T11:00:06;101105.13;;;7.17;64.93
43125;BME280;49182;50.788;7.318;2023-03-15T11:02:48;101115.00;;;7.14;65.48
43125;BME280;49182;50.788;7.318;2023-03-15T11:05:16;101120.56;;;7.09;66.23
43125;BME280;49182;50.788;7.318;2023-03-15T11:07:53;101115.41;;;7.08;64.92
43125;BME280;49182;50.788;7.318;2023-03-15T11:10:21;101105.28;;;6.75;66.46
43125;BME280;49182;50.788;7.318;2023-03-15T11:12:49;101113.84;;;6.64;65.92
43125;BME280;49182;50.788;7.318;2023-03-15T11:15:17;101119.09;;;6.50;66.07
43125;BME280;49182;50.788;7.318;2023-03-15T11:17:46;101110.59;;;6.46;66.21
43125;BME280;49182;50.788;7.318;2023-03-15T11:20:23;101131.34;;;6.64;67.21
43125;BME280;49182;50.788;7.318;2023-03-15T11:22:52;101115.91;;;6.59;65.70
43125;BME280;49182;50.788;7.318;2023-03-15T11:25:19;101123.66;;;6.75;63.73
43125;BME280;49182;50.788;7.318;2023-03-15T11:27:51;101124.56;;;6.88;62.85
43125;BME280;49182;50.788;7.318;2023-03-15T11:30:26;101120.59;;;6.95;63.90
43125;BME280;49182;50.788;7.318;2023-03-15T11:32:54;101144.31;;;7.20;62.76
43125;BME280;49182;50.788;7.318;2023-03-15T11:35:25;101150.34;;;7.35;66.52
43125;BME280;49182;50.788;7.318;2023-03-15T11:37:57;101148.81;;;7.45;65.83
43125;BME280;49182;50.788;7.318;2023-03-15T11:40:42;101148.31;;;7.53;64.14
43125;BME280;49182;50.788;7.318;2023-03-15T11:43:16;101144.53;;;7.57;63.85
43125;BME280;49182;50.788;7.318;2023-03-15T11:45:50;101134.44;;;7.51;62.42
43125;BME280;49182;50.788;7.318;2023-03-15T11:48:47;101148.81;;;7.45;62.85
43125;BME280;49182;50.788;7.318;2023-03-15T11:51:16;101161.00;;;7.46;62.04
43125;BME280;49182;50.788;7.318;2023-03-15T11:53:45;101164.09;;;7.53;65.24
43125;BME280;49182;50.788;7.318;2023-03-15T11:56:22;101165.78;;;7.79;62.06
43125;BME280;49182;50.788;7.318;2023-03-15T11:59:05;101170.97;;;7.93;60.38
43125;BME280;49182;50.788;7.318;2023-03-15T12:01:33;101169.53;;;8.02;62.54
43125;BME280;49182;50.788;7.318;2023-03-15T12:04:27;101166.75;;;8.03;64.44
43125;BME280;49182;50.788;7.318;2023-03-15T12:06:55;101161.41;;;8.05;63.11
43125;BME280;49182;50.788;7.318;2023-03-15T12:09:50;101167.94;;;8.12;58.52
43125;BME280;49182;50.788;7.318;2023-03-15T12:12:37;101169.50;;;7.89;57.18
43125;BME280;49182;50.788;7.318;2023-03-15T12:17:56;101162.34;;;7.91;58.65
43125;BME280;49182;50.788;7.318;2023-03-15T12:20:31;101170.97;;;7.93;58.93
43125;BME280;49182;50.788;7.318;2023-03-15T12:23:13;101172.03;;;8.03;59.22
43125;BME280;49182;50.788;7.318;2023-03-15T12:25:51;101170.13;;;7.93;59.03
43125;BME280;49182;50.788;7.318;2023-03-15T12:28:25;101171.06;;;7.92;58.76
43125;BME280;49182;50.788;7.318;2023-03-15T12:30:55;101173.00;;;7.90;57.97
43125;BME280;49182;50.788;7.318;2023-03-15T12:33:23;101132.78;;;7.75;58.20
43125;BME280;49182;50.788;7.318;2023-03-15T12:36:00;101176.56;;;8.01;58.64
43125;BME280;49182;50.788;7.318;2023-03-15T12:38:34;101179.41;;;8.24;59.73
43125;BME280;49182;50.788;7.318;2023-03-15T12:41:06;101159.84;;;8.40;57.96
43125;BME280;49182;50.788;7.318;2023-03-15T12:43:38;101167.78;;;8.77;58.06
43125;BME280;49182;50.788;7.318;2023-03-15T12:46:06;101167.09;;;8.99;58.29
43125;BME280;49182;50.788;7.318;2023-03-15T12:49:11;101169.28;;;9.05;56.19
43125;BME280;49182;50.788;7.318;2023-03-15T12:51:44;101156.56;;;8.99;56.62
43125;BME280;49182;50.788;7.318;2023-03-15T12:54:20;101166.53;;;8.82;56.75
43125;BME280;49182;50.788;7.318;2023-03-15T12:56:52;101155.38;;;8.66;57.90
43125;BME280;49182;50.788;7.318;2023-03-15T12:59:26;101156.06;;;8.57;56.84
43125;BME280;49182;50.788;7.318;2023-03-15T13:01:57;101173.22;;;8.50;57.23
43125;BME280;49182;50.788;7.318;2023-03-15T13:04:25;101169.22;;;8.57;55.30
43125;BME280;49182;50.788;7.318;2023-03-15T13:07:08;101169.19;;;8.70;57.40
43125;BME280;49182;50.788;7.318;2023-03-15T13:09:55;101170.19;;;8.92;56.92
43125;BME280;49182;50.788;7.318;2023-03-15T13:12:26;101164.63;;;9.08;57.22
43125;BME280;49182;50.788;7.318;2023-03-15T13:14:57;101153.03;;;9.11;54.02
43125;BME280;49182;50.788;7.318;2023-03-15T13:17:30;101150.81;;;9.17;54.09
43125;BME280;49182;50.788;7.318;2023-03-15T13:20:11;101143.00;;;9.16;54.19
43125;BME280;49182;50.788;7.318;2023-03-15T13:22:46;101150.91;;;9.16;51.60
43125;BME280;49182;50.788;7.318;2023-03-15T13:25:26;101150.00;;;9.28;52.51
43125;BME280;49182;50.788;7.318;2023-03-15T13:27:58;101156.16;;;9.40;54.31
43125;BME280;49182;50.788;7.318;2023-03-15T13:30:31;101172.38;;;9.22;52.20
43125;BME280;49182;50.788;7.318;2023-03-15T13:33:05;101164.41;;;9.59;51.57